createdAt,value
2023-01-17T00:01:34.189Z,95.70
2023-01-17T00:05:58.140Z,95.50
2023-01-17T00:10:02.726Z,96.00
2023-01-17T00:14:04.693Z,96.20
2023-01-17T00:18:06.650Z,96.00
2023-01-17T00:22:43.702Z,95.80
2023-01-17T00:27:03.976Z,95.80
2023-01-17T00:31:07.335Z,96.00
2023-01-17T00:35:09.324Z,96.20
2023-01-17T00:39:11.250Z,95.50
2023-01-17T00:43:33.226Z,95.50
2023-01-17T00:47:55.191Z,95.70
2023-01-17T00:52:16.518Z,95.50
2023-01-17T00:56:36.885Z,95.30
2023-01-17T01:00:57.287Z,95.50
2023-01-17T01:05:17.599Z,95.40
2023-01-17T01:09:38.195Z,95.70
2023-01-17T01:13:58.861Z,95.90
2023-01-17T01:18:27.357Z,95.80
2023-01-17T01:22:47.815Z,95.70
2023-01-17T01:27:08.420Z,96.10
2023-01-17T01:31:28.873Z,95.50
2023-01-17T01:35:30.885Z,95.80
2023-01-17T01:39:32.817Z,96.00
2023-01-17T01:43:40.684Z,95.50
2023-01-17T01:47:43.970Z,95.80
2023-01-17T01:51:51.946Z,96.40
2023-01-17T01:55:53.943Z,96.10
2023-01-17T02:00:03.988Z,96.30
2023-01-17T02:04:15.059Z,96.50
2023-01-17T02:08:20.076Z,95.90
2023-01-17T02:12:22.437Z,96.10
2023-01-17T02:17:03.980Z,96.20
2023-01-17T02:21:14.872Z,95.80
2023-01-17T02:25:58.511Z,97.10
2023-01-17T02:30:19.771Z,96.90
2023-01-17T02:34:33.750Z,96.80
2023-01-17T02:38:50.485Z,96.80
2023-01-17T02:42:58.241Z,96.50
2023-01-17T02:47:00.201Z,96.00
2023-01-17T02:51:36.761Z,96.10
2023-01-17T02:55:52.851Z,95.70
2023-01-17T03:00:24.179Z,95.60
2023-01-17T03:04:37.912Z,95.60
2023-01-17T03:08:43.323Z,96.30
2023-01-17T03:12:45.932Z,95.90
2023-01-17T03:16:48.119Z,95.70
2023-01-17T03:20:50.113Z,96.00
2023-01-17T03:24:52.137Z,95.90
2023-01-17T03:28:54.098Z,95.20
2023-01-17T03:32:56.028Z,95.30
2023-01-17T03:36:57.964Z,95.30
2023-01-17T03:40:59.891Z,95.50
2023-01-17T03:45:01.812Z,95.40
2023-01-17T03:49:03.890Z,95.20
2023-01-17T03:53:05.758Z,95.30
2023-01-17T03:57:08.609Z,94.70
2023-01-17T04:01:10.836Z,94.90
2023-01-17T04:05:12.875Z,94.90
2023-01-17T04:09:14.855Z,95.10
2023-01-17T04:13:17.046Z,95.00
2023-01-17T04:17:20.661Z,95.00
2023-01-17T04:21:22.845Z,95.00
2023-01-17T04:25:25.711Z,95.10
2023-01-17T04:29:27.525Z,95.10
2023-01-17T04:33:29.649Z,95.10
2023-01-17T04:37:31.431Z,95.30
2023-01-17T04:41:33.386Z,95.30
2023-01-17T04:45:35.512Z,95.20
2023-01-17T04:49:37.279Z,95.20
2023-01-17T04:53:39.102Z,95.30
2023-01-17T04:57:40.879Z,95.30
2023-01-17T05:01:42.852Z,95.40
2023-01-17T05:05:44.766Z,95.30
2023-01-17T05:09:47.624Z,95.20
2023-01-17T05:13:49.413Z,95.10
2023-01-17T05:17:52.685Z,95.20
2023-01-17T05:21:54.715Z,95.10
2023-01-17T05:25:56.670Z,95.30
2023-01-17T05:29:58.424Z,95.70
2023-01-17T05:34:00.314Z,95.50
2023-01-17T05:38:02.566Z,95.50
2023-01-17T05:42:04.658Z,95.70
2023-01-17T05:46:06.698Z,96.00
2023-01-17T05:50:09.247Z,96.20
2023-01-17T05:54:11.160Z,95.80
2023-01-17T05:58:19.184Z,95.50
2023-01-17T06:02:21.102Z,95.30
2023-01-17T06:06:23.114Z,95.40
2023-01-17T06:10:26.123Z,95.20
2023-01-17T06:14:28.054Z,94.80
2023-01-17T06:18:31.452Z,94.80
2023-01-17T06:22:33.728Z,94.80
2023-01-17T06:26:35.612Z,94.50
2023-01-17T06:30:37.785Z,94.70
2023-01-17T06:34:40.085Z,94.50
2023-01-17T06:38:42.077Z,94.20
2023-01-17T06:42:43.996Z,94.20
2023-01-17T06:46:47.681Z,94.40
2023-01-17T06:50:49.894Z,94.90
2023-01-17T06:54:51.836Z,95.00
2023-01-17T06:58:53.756Z,95.60
2023-01-17T07:02:55.784Z,95.10
2023-01-17T07:06:57.780Z,94.90
2023-01-17T07:11:01.930Z,94.70
2023-01-17T07:15:04.043Z,94.70
2023-01-17T07:19:05.893Z,94.40
2023-01-17T07:23:07.670Z,94.40
2023-01-17T07:27:09.554Z,94.60
2023-01-17T07:31:11.523Z,94.80
2023-01-17T07:35:13.549Z,95.00
2023-01-17T07:39:16.365Z,94.80
2023-01-17T07:43:18.292Z,94.60
2023-01-17T07:47:20.267Z,94.40
2023-01-17T07:51:22.161Z,94.40
2023-01-17T07:55:24.153Z,94.40
2023-01-17T07:59:26.047Z,94.90
2023-01-17T08:03:32.325Z,94.70
2023-01-17T08:07:34.866Z,94.90
2023-01-17T08:11:36.809Z,94.90
2023-01-17T08:15:38.755Z,94.70
2023-01-17T08:19:40.864Z,94.60
2023-01-17T08:23:46.893Z,94.70
2023-01-17T08:27:48.860Z,94.90
2023-01-17T08:31:51.311Z,95.00
2023-01-17T08:35:54.795Z,95.10
2023-01-17T08:39:56.755Z,95.30
2023-01-17T08:43:58.779Z,95.40
2023-01-17T08:48:00.797Z,95.10
2023-01-17T08:52:02.738Z,95.10
2023-01-17T08:56:05.806Z,95.10
2023-01-17T09:00:09.911Z,95.20
2023-01-17T09:04:12.961Z,95.30
2023-01-17T09:08:15.001Z,95.50
2023-01-17T09:12:16.956Z,95.30
2023-01-17T09:16:18.941Z,95.30
2023-01-17T09:20:20.931Z,95.30
2023-01-17T09:24:23.068Z,95.50
2023-01-17T09:28:26.307Z,95.50
2023-01-17T09:32:28.343Z,95.20
2023-01-17T09:36:31.799Z,95.10
2023-01-17T09:40:34.268Z,95.10
2023-01-17T09:44:44.015Z,95.00
2023-01-17T09:48:46.580Z,95.10
2023-01-17T09:52:48.604Z,95.20
2023-01-17T09:57:11.708Z,95.40
2023-01-17T10:01:33.066Z,95.30
2023-01-17T10:05:47.311Z,95.30
2023-01-17T10:10:12.177Z,95.60
2023-01-17T10:14:52.555Z,95.60
2023-01-17T10:19:19.234Z,95.60
2023-01-17T10:23:34.565Z,95.90
2023-01-17T10:27:45.840Z,96.00
2023-01-17T10:31:58.583Z,95.90
2023-01-17T10:36:10.980Z,96.20
2023-01-17T10:40:16.655Z,96.00
2023-01-17T10:44:43.843Z,96.10
2023-01-17T10:48:49.581Z,95.80
2023-01-17T10:53:10.496Z,95.80
2023-01-17T10:57:19.806Z,96.30
2023-01-17T11:01:22.139Z,96.10
2023-01-17T11:05:30.478Z,96.10
2023-01-17T11:09:41.189Z,95.70
2023-01-17T11:13:47.777Z,95.40
2023-01-17T11:17:53.255Z,95.60
2023-01-17T11:22:01.700Z,95.20
2023-01-17T11:26:07.668Z,95.70
2023-01-17T11:30:20.747Z,94.50
2023-01-17T11:34:25.518Z,93.90
2023-01-17T11:38:27.428Z,92.90
2023-01-17T11:42:38.225Z,92.10
2023-01-17T11:46:40.289Z,91.20
2023-01-17T11:50:55.346Z,90.90
2023-01-17T11:54:57.463Z,90.50
2023-01-17T11:59:27.493Z,87.30
2023-01-17T12:03:38.293Z,84.70
2023-01-17T12:07:59.452Z,88.40
2023-01-17T12:12:25.905Z,87.80
2023-01-17T12:16:33.887Z,86.40
2023-01-17T12:21:11.919Z,87.50
2023-01-17T12:25:31.858Z,87.30
2023-01-17T12:30:01.164Z,84.10
2023-01-17T12:34:35.458Z,85.90
2023-01-17T12:38:39.650Z,87.10
2023-01-17T12:42:48.855Z,85.70
2023-01-17T12:47:00.881Z,88.00
2023-01-17T12:51:14.146Z,84.50
2023-01-17T12:55:22.057Z,84.90
2023-01-17T12:59:49.946Z,84.40
2023-01-17T13:04:00.956Z,83.60
2023-01-17T13:08:09.984Z,83.10
2023-01-17T13:12:19.340Z,83.60
2023-01-17T13:16:34.055Z,83.80
2023-01-17T13:20:52.900Z,83.70
2023-01-17T13:25:09.854Z,80.60
2023-01-17T13:29:23.873Z,82.60
2023-01-17T13:33:38.922Z,83.40
2023-01-17T13:37:43.927Z,82.20
2023-01-17T13:42:11.875Z,81.90
2023-01-17T13:46:13.905Z,81.80
2023-01-17T13:50:36.039Z,80.80
2023-01-17T13:54:44.728Z,82.50
2023-01-17T13:58:50.415Z,81.50
2023-01-17T14:02:55.350Z,80.70
2023-01-17T14:07:01.248Z,81.70
2023-01-17T14:11:10.002Z,81.40
2023-01-17T14:15:27.241Z,81.50
2023-01-17T14:19:29.265Z,82.00
2023-01-17T14:23:37.214Z,82.50
2023-01-17T14:28:02.150Z,83.40
2023-01-17T14:32:09.601Z,84.00
2023-01-17T14:36:24.964Z,84.40
2023-01-17T14:40:30.622Z,84.60
2023-01-17T14:44:34.121Z,84.80
2023-01-17T14:48:40.254Z,84.30
2023-01-17T14:52:42.137Z,84.40
2023-01-17T14:56:44.767Z,84.10
2023-01-17T15:00:50.090Z,85.30
2023-01-17T15:04:55.692Z,85.20
2023-01-17T15:08:58.144Z,84.50
2023-01-17T15:13:07.801Z,86.80
2023-01-17T15:17:18.387Z,85.90
2023-01-17T15:21:26.390Z,86.10
2023-01-17T15:25:28.560Z,86.70
2023-01-17T15:29:35.184Z,86.50
2023-01-17T15:33:41.051Z,86.80
2023-01-17T15:37:43.014Z,86.90
2023-01-17T15:41:44.874Z,86.60
2023-01-17T15:45:57.137Z,87.70
2023-01-17T15:50:01.042Z,87.20
2023-01-17T15:54:40.665Z,86.20
2023-01-17T15:58:42.668Z,86.80
2023-01-17T16:02:55.756Z,87.20
2023-01-17T16:07:09.949Z,86.30
2023-01-17T16:11:12.773Z,86.10
2023-01-17T16:15:16.947Z,85.80
2023-01-17T16:19:21.497Z,87.50
2023-01-17T16:23:23.772Z,86.00
2023-01-17T16:27:25.709Z,86.90
2023-01-17T16:31:27.699Z,86.50
2023-01-17T16:35:32.642Z,85.50
2023-01-17T16:39:34.640Z,86.40
2023-01-17T16:43:36.751Z,85.40
2023-01-17T16:47:44.900Z,86.00
2023-01-17T16:51:47.728Z,86.90
2023-01-17T16:55:50.768Z,87.10
2023-01-17T16:59:53.232Z,87.30
2023-01-17T17:03:55.210Z,88.20
2023-01-17T17:07:57.542Z,88.10
2023-01-17T17:11:59.622Z,87.40
2023-01-17T17:16:01.583Z,88.10
2023-01-17T17:20:05.318Z,88.60
2023-01-17T17:24:07.743Z,88.30
2023-01-17T17:28:10.918Z,88.30
2023-01-17T17:32:12.829Z,89.20
2023-01-17T17:36:15.070Z,89.40
2023-01-17T17:40:17.083Z,89.80
2023-01-17T17:44:18.989Z,89.40
2023-01-17T17:48:20.769Z,89.80
2023-01-17T17:52:22.644Z,88.90
2023-01-17T17:56:24.399Z,88.80
2023-01-17T18:00:26.350Z,90.00
2023-01-17T18:04:28.423Z,89.70
2023-01-17T18:08:33.884Z,89.60
2023-01-17T18:12:35.909Z,89.80
2023-01-17T18:16:43.640Z,89.00
2023-01-17T18:20:45.477Z,89.10
2023-01-17T18:24:47.222Z,88.00
2023-01-17T18:28:49.771Z,89.80
2023-01-17T18:32:51.633Z,90.20
2023-01-17T18:36:54.070Z,90.00
2023-01-17T18:40:55.881Z,90.20
2023-01-17T18:44:57.798Z,90.20
2023-01-17T18:48:59.753Z,90.50
2023-01-17T18:53:01.578Z,90.60
2023-01-17T18:57:03.462Z,90.50
2023-01-17T19:01:16.905Z,90.70
2023-01-17T19:05:21.495Z,91.20
2023-01-17T19:09:23.460Z,92.00
2023-01-17T19:13:25.294Z,93.00
2023-01-17T19:17:27.050Z,93.10
2023-01-17T19:21:29.944Z,93.80
2023-01-17T19:25:34.666Z,93.90
2023-01-17T19:29:36.880Z,94.00
2023-01-17T19:33:40.798Z,94.20
2023-01-17T19:37:47.263Z,94.10
2023-01-17T19:41:49.045Z,94.40
2023-01-17T19:46:00.209Z,94.30
2023-01-17T19:50:04.484Z,94.70
2023-01-17T19:54:07.844Z,94.80
2023-01-17T19:58:09.665Z,94.80
2023-01-17T20:02:11.792Z,94.50
2023-01-17T20:06:17.514Z,94.60
2023-01-17T20:10:20.883Z,94.90
2023-01-17T20:14:22.656Z,95.20
2023-01-17T20:18:24.484Z,94.90
2023-01-17T20:22:26.394Z,94.90
2023-01-17T20:26:36.804Z,95.10
2023-01-17T20:30:38.664Z,95.00
2023-01-17T20:34:40.431Z,95.20
2023-01-17T20:38:43.747Z,95.20
2023-01-17T20:42:45.680Z,95.00
2023-01-17T20:46:48.161Z,94.80
2023-01-17T20:50:49.938Z,95.00
2023-01-17T20:54:52.648Z,94.80
2023-01-17T20:58:55.109Z,95.00
2023-01-17T21:02:57.061Z,95.40
2023-01-17T21:06:59.154Z,95.30
2023-01-17T21:11:01.681Z,95.10
2023-01-17T21:15:03.904Z,95.30
2023-01-17T21:19:06.301Z,95.70
2023-01-17T21:23:09.030Z,95.50
2023-01-17T21:27:12.359Z,95.40
2023-01-17T21:31:24.823Z,95.30
2023-01-17T21:35:26.818Z,95.00
2023-01-17T21:39:29.284Z,95.50
2023-01-17T21:43:31.211Z,95.70
2023-01-17T21:47:33.078Z,95.60
2023-01-17T21:51:52.946Z,96.20
2023-01-17T21:56:18.783Z,96.00
2023-01-17T22:00:20.828Z,95.70
2023-01-17T22:04:22.828Z,95.50
2023-01-17T22:08:24.741Z,95.90
2023-01-17T22:12:26.772Z,95.80
2023-01-17T22:16:28.662Z,95.90
2023-01-17T22:20:30.674Z,96.00
2023-01-17T22:24:32.670Z,95.80
2023-01-17T22:28:34.935Z,95.50
2023-01-17T22:32:36.975Z,95.70
2023-01-17T22:36:39.468Z,95.70
2023-01-17T22:40:41.394Z,95.80
2023-01-17T22:44:43.376Z,95.80
2023-01-17T22:48:46.158Z,95.90
2023-01-17T22:52:48.127Z,95.80
2023-01-17T22:56:50.262Z,95.90
2023-01-17T23:00:53.286Z,96.00
2023-01-17T23:04:55.223Z,95.70
2023-01-17T23:08:59.361Z,95.70
2023-01-17T23:13:01.381Z,95.80
2023-01-17T23:17:22.910Z,95.70
2023-01-17T23:21:44.762Z,95.80
2023-01-17T23:25:46.643Z,96.20
2023-01-17T23:29:48.487Z,96.60
2023-01-17T23:33:50.339Z,96.80
2023-01-17T23:38:11.326Z,96.30
2023-01-17T23:42:31.764Z,96.00
2023-01-17T23:46:33.807Z,95.60
2023-01-17T23:50:40.178Z,95.20
2023-01-17T23:54:43.320Z,95.00
2023-01-17T23:58:45.252Z,95.20
